Time;durP1;ratioP1;P1;durP2;ratioP2;P2;SDS_P1;SDS_P2;PMS_P1;PMS_P2;Temp;Humidity;BMP_temperature;BMP_pressure;BME280_temperature;BME280_humidity;BME280_pressure;Samples;Min_cycle;Max_cycle;Signal;HPM_P1;HPM_P2
2021/04/09 00:00:10;;;;;;;10.80;8.47;;;7.00;59.80;;;;;;5074340;28;20448;-75
2021/04/09 00:02:37;;;;;;;12.80;8.30;;;7.00;60.00;;;;;;5074194;28;20449;-75
2021/04/09 00:05:06;;;;;;;12.30;8.40;;;7.00;59.90;;;;;;5074174;28;20448;-75
2021/04/09 00:07:32;;;;;;;11.40;7.93;;;7.00;59.90;;;;;;5073809;28;20534;-75
2021/04/09 00:09:58;;;;;;;11.00;7.67;;;7.10;60.00;;;;;;5073745;28;20805;-75
2021/04/09 00:12:24;;;;;;;10.80;8.37;;;7.10;59.80;;;;;;5074027;28;20499;-75
2021/04/09 00:14:50;;;;;;;9.00;8.10;;;7.10;60.00;;;;;;5073991;28;20449;-75
2021/04/09 00:17:17;;;;;;;11.60;8.03;;;7.10;59.80;;;;;;5073863;28;20460;-75
2021/04/09 00:19:44;;;;;;;10.10;7.73;;;7.10;59.70;;;;;;5073975;28;20425;-75
2021/04/09 00:22:10;;;;;;;13.10;8.23;;;7.10;59.70;;;;;;5073903;28;20449;-75
2021/04/09 00:24:36;;;;;;;10.60;7.03;;;7.00;59.80;;;;;;5073810;28;20440;-75
2021/04/09 00:27:02;;;;;;;8.80;7.57;;;7.00;59.70;;;;;;5073353;28;20480;-75
2021/04/09 00:29:28;;;;;;;11.17;8.10;;;7.00;59.60;;;;;;5073461;28;20950;-75
2021/04/09 00:31:55;;;;;;;7.90;7.17;;;7.10;59.60;;;;;;5073745;28;20503;-75
2021/04/09 00:34:21;;;;;;;9.67;7.60;;;7.10;59.60;;;;;;5073693;28;20445;-75
2021/04/09 00:36:48;;;;;;;11.47;7.47;;;7.00;59.70;;;;;;5073302;28;20464;-76
2021/04/09 00:39:14;;;;;;;10.73;7.40;;;7.10;59.90;;;;;;5073663;28;20448;-75
2021/04/09 00:41:41;;;;;;;12.70;8.10;;;7.10;59.90;;;;;;5073662;28;20443;-75
2021/04/09 00:44:08;;;;;;;10.50;6.90;;;7.10;60.00;;;;;;5073277;28;20939;-75
2021/04/09 00:46:34;;;;;;;9.80;7.50;;;7.00;59.60;;;;;;5073086;28;20485;-75
2021/04/09 00:49:01;;;;;;;8.17;7.17;;;7.00;60.20;;;;;;5073571;28;20444;-75
2021/04/09 00:51:27;;;;;;;12.33;8.13;;;6.90;60.30;;;;;;5073482;28;20449;-75
2021/04/09 00:53:55;;;;;;;12.37;8.27;;;6.90;60.10;;;;;;5073173;28;20970;-75
2021/04/09 00:56:26;;;;;;;10.63;9.10;;;6.80;59.90;;;;;;5073126;28;21041;-75
2021/04/09 00:58:52;;;;;;;9.67;7.60;;;6.70;60.00;;;;;;5073143;28;20923;-75
2021/04/09 01:01:19;;;;;;;10.73;7.30;;;6.70;60.40;;;;;;5073312;28;20502;-75
2021/04/09 01:03:45;;;;;;;16.40;7.83;;;6.70;60.50;;;;;;5073350;28;20444;-75
2021/04/09 01:06:11;;;;;;;12.10;7.27;;;6.60;60.90;;;;;;5073282;28;20488;-75
2021/04/09 01:08:38;;;;;;;18.23;8.33;;;6.60;60.90;;;;;;5072900;28;20465;-75
2021/04/09 01:11:05;;;;;;;12.57;7.60;;;6.60;61.20;;;;;;5073342;28;20448;-75
2021/04/09 01:13:31;;;;;;;16.53;7.57;;;6.60;61.30;;;;;;5073285;28;20444;-75
2021/04/09 01:15:58;;;;;;;12.77;8.47;;;6.60;61.40;;;;;;5073001;28;20451;-75
2021/04/09 01:18:30;;;;;;;17.37;8.70;;;6.60;61.40;;;;;;5073230;28;20465;-75
2021/04/09 01:21:03;;;;;;;9.97;6.90;;;6.70;61.00;;;;;;5072905;28;20536;-75
2021/04/09 01:23:38;;;;;;;9.60;8.27;;;6.60;60.90;;;;;;5073215;28;20425;-75
2021/04/09 01:26:38;;;;;;;9.80;7.47;;;6.60;60.90;;;;;;5073082;28;20563;-75
2021/04/09 01:29:40;;;;;;;9.80;7.20;;;6.60;61.50;;;;;;5073244;28;20482;-75
2021/04/09 01:32:09;;;;;;;9.80;7.50;;;6.50;61.90;;;;;;5070765;28;20866;-75
2021/04/09 01:34:39;;;;;;;9.23;7.57;;;6.50;61.90;;;;;;5073126;28;20440;-75
2021/04/09 01:37:11;;;;;;;12.47;6.57;;;6.50;61.80;;;;;;5073076;28;20522;-75
2021/04/09 01:39:41;;;;;;;10.60;6.60;;;6.50;62.50;;;;;;5073114;28;20433;-75
2021/04/09 01:42:10;;;;;;;9.40;7.70;;;6.40;62.60;;;;;;5073393;28;20447;-75
2021/04/09 01:44:43;;;;;;;11.53;7.20;;;6.40;62.70;;;;;;5073047;28;20459;-75
2021/04/09 01:47:12;;;;;;;9.17;7.47;;;6.30;62.60;;;;;;5072867;28;20492;-75
2021/04/09 01:49:40;;;;;;;9.00;7.27;;;6.30;63.20;;;;;;5072972;28;20456;-75
2021/04/09 01:52:09;;;;;;;12.30;6.73;;;6.30;63.00;;;;;;5072939;28;20502;-75
2021/04/09 01:54:38;;;;;;;7.53;6.50;;;6.30;62.80;;;;;;5072988;28;20444;-75
2021/04/09 01:57:07;;;;;;;8.43;7.10;;;6.30;63.10;;;;;;5072874;28;20506;-75
2021/04/09 01:59:34;;;;;;;9.03;7.00;;;6.30;63.30;;;;;;5072882;28;20444;-75
2021/04/09 02:02:01;;;;;;;10.17;7.80;;;6.30;63.40;;;;;;5072881;28;20498;-75
2021/04/09 02:04:30;;;;;;;10.57;7.17;;;6.30;63.30;;;;;;5072825;28;20457;-75
2021/04/09 02:06:57;;;;;;;7.07;6.47;;;6.30;63.30;;;;;;5072555;28;20502;-75
2021/04/09 02:09:24;;;;;;;14.67;7.33;;;6.30;63.50;;;;;;5072532;28;20911;-75
2021/04/09 02:11:51;;;;;;;7.80;6.87;;;6.20;63.30;;;;;;5072818;28;20451;-75
2021/04/09 02:14:18;;;;;;;10.67;7.73;;;6.20;63.60;;;;;;5076373;28;20433;-75
2021/04/09 02:16:46;;;;;;;9.50;6.23;;;6.20;64.10;;;;;;5076194;28;20464;-75
2021/04/09 02:19:13;;;;;;;12.37;8.10;;;6.20;64.00;;;;;;5076279;28;20448;-75
2021/04/09 02:21:40;;;;;;;14.73;7.50;;;6.20;64.10;;;;;;5076185;28;20807;-75
2021/04/09 02:24:08;;;;;;;9.37;7.00;;;6.20;64.30;;;;;;5076144;28;20444;-75
2021/04/09 02:26:35;;;;;;;8.90;6.83;;;6.20;64.20;;;;;;5075944;28;20489;-75
2021/04/09 02:29:01;;;;;;;10.93;7.33;;;6.20;65.20;;;;;;5076106;28;20444;-75
2021/04/09 02:31:28;;;;;;;6.90;6.20;;;6.10;64.40;;;;;;5076018;28;20441;-75
2021/04/09 02:33:55;;;;;;;9.43;7.60;;;6.10;64.30;;;;;;5075644;28;20448;-75
2021/04/09 02:36:23;;;;;;;11.23;7.63;;;6.10;64.30;;;;;;5075883;28;20463;-75
2021/04/09 02:38:52;;;;;;;9.90;7.13;;;6.10;64.60;;;;;;5075904;28;20444;-75
2021/04/09 02:41:20;;;;;;;13.20;7.50;;;6.10;64.50;;;;;;5075916;28;20440;-75
2021/04/09 02:43:48;;;;;;;10.20;7.10;;;6.10;64.40;;;;;;5075779;28;20475;-75
2021/04/09 02:46:19;;;;;;;8.10;6.90;;;6.10;64.70;;;;;;5075570;28;20544;-75
2021/04/09 02:48:52;;;;;;;8.00;6.80;;;6.10;64.80;;;;;;5075426;28;20904;-75
2021/04/09 02:51:21;;;;;;;8.63;7.10;;;6.10;65.00;;;;;;5076486;28;20822;-75
2021/04/09 02:53:49;;;;;;;10.20;7.57;;;6.10;65.00;;;;;;5075292;28;20437;-75
2021/04/09 02:56:17;;;;;;;10.47;7.33;;;6.10;65.00;;;;;;5075475;28;20449;-75
2021/04/09 02:58:45;;;;;;;8.97;7.03;;;6.10;65.00;;;;;;5075532;28;20448;-75
2021/04/09 03:01:12;;;;;;;10.37;7.23;;;6.10;65.20;;;;;;5075497;28;20456;-75
2021/04/09 03:03:39;;;;;;;15.50;8.80;;;6.10;65.20;;;;;;5075433;28;20441;-75
2021/04/09 03:06:06;;;;;;;10.63;7.33;;;6.10;65.10;;;;;;5075211;28;20479;-75
2021/04/09 03:08:32;;;;;;;11.17;8.40;;;6.10;65.20;;;;;;5074989;28;20471;-75
2021/04/09 03:11:01;;;;;;;8.07;7.27;;;6.10;65.10;;;;;;5074926;28;20969;-75
2021/04/09 03:13:28;;;;;;;13.87;8.13;;;6.10;65.30;;;;;;5075230;28;20449;-75
2021/04/09 03:15:57;;;;;;;9.20;7.63;;;6.00;65.40;;;;;;5075742;28;20451;-75
2021/04/09 03:18:25;;;;;;;9.83;7.53;;;6.00;65.10;;;;;;5074727;28;20826;-75
2021/04/09 03:20:54;;;;;;;12.70;7.70;;;6.00;65.60;;;;;;5075456;28;20441;-75
2021/04/09 03:23:20;;;;;;;13.63;7.77;;;6.00;65.40;;;;;;5074705;28;20451;-75
2021/04/09 03:25:46;;;;;;;9.37;7.43;;;6.00;65.50;;;;;;5074301;28;20448;-75
2021/04/09 03:28:13;;;;;;;11.77;8.47;;;6.00;65.00;;;;;;5074644;28;20874;-74
2021/04/09 03:30:40;;;;;;;9.37;7.87;;;5.90;65.20;;;;;;5074978;28;20444;-74
2021/04/09 03:33:06;;;;;;;12.13;8.60;;;5.90;65.90;;;;;;5074537;28;20455;-75
2021/04/09 03:35:33;;;;;;;11.40;9.13;;;5.90;65.50;;;;;;5074827;28;20459;-75
2021/04/09 03:37:59;;;;;;;13.90;9.40;;;5.90;66.10;;;;;;5074718;28;20463;-75
2021/04/09 03:40:25;;;;;;;8.27;7.47;;;5.90;66.40;;;;;;5074474;28;20792;-75
2021/04/09 03:42:51;;;;;;;12.10;9.23;;;5.90;66.20;;;;;;5075412;28;20452;-75
2021/04/09 03:45:17;;;;;;;14.17;10.50;;;5.90;66.00;;;;;;5074634;28;20445;-75
2021/04/09 03:47:44;;;;;;;13.27;9.80;;;5.80;65.90;;;;;;5074492;28;20489;-75
2021/04/09 03:50:11;;;;;;;13.03;9.30;;;5.90;66.50;;;;;;5074524;28;20445;-75
2021/04/09 03:52:38;;;;;;;11.37;7.90;;;5.80;66.30;;;;;;5074435;28;20472;-75
2021/04/09 03:55:06;;;;;;;13.20;7.13;;;5.90;66.30;;;;;;5074138;28;20503;-75
2021/04/09 03:57:32;;;;;;;9.80;8.27;;;5.80;66.30;;;;;;5074409;28;20456;-75
2021/04/09 03:59:59;;;;;;;10.60;8.27;;;5.80;66.50;;;;;;5074326;28;20463;-75
2021/04/09 04:02:25;;;;;;;11.20;7.40;;;5.80;66.50;;;;;;5074267;28;20448;-75
2021/04/09 04:04:52;;;;;;;14.27;7.87;;;5.80;66.50;;;;;;5074010;28;20976;-74
2021/04/09 04:07:18;;;;;;;13.83;7.93;;;5.90;66.50;;;;;;5073962;28;20518;-74
2021/04/09 04:09:44;;;;;;;9.40;7.47;;;5.90;66.20;;;;;;5073848;28;20436;-74
2021/04/09 04:12:11;;;;;;;10.90;7.43;;;5.90;66.60;;;;;;5074097;28;20486;-74
2021/04/09 04:14:37;;;;;;;11.33;8.10;;;5.90;66.40;;;;;;5074036;28;20448;-74
2021/04/09 04:17:03;;;;;;;12.00;7.67;;;6.00;66.70;;;;;;5073957;28;20468;-74
2021/04/09 04:19:29;;;;;;;8.10;6.90;;;6.00;66.30;;;;;;5073981;28;20585;-74
2021/04/09 04:21:56;;;;;;;9.50;7.10;;;6.00;65.70;;;;;;5073956;28;20927;-74
2021/04/09 04:24:23;;;;;;;9.03;7.40;;;6.00;65.70;;;;;;5073635;28;20969;-74
2021/04/09 04:26:49;;;;;;;11.93;7.30;;;6.00;65.80;;;;;;5073782;28;20484;-74
2021/04/09 04:29:15;;;;;;;13.50;8.53;;;6.00;66.00;;;;;;5073861;28;20436;-74
2021/04/09 04:31:41;;;;;;;13.40;7.53;;;6.00;65.80;;;;;;5073777;28;20445;-74
2021/04/09 04:34:08;;;;;;;11.73;7.50;;;6.00;65.80;;;;;;5073436;28;20444;-74
2021/04/09 04:36:34;;;;;;;10.03;7.80;;;6.00;66.10;;;;;;5073332;28;20456;-74
2021/04/09 04:39:03;;;;;;;10.10;7.87;;;6.00;66.30;;;;;;5073659;28;20494;-74
2021/04/09 04:41:29;;;;;;;11.43;8.67;;;6.00;66.30;;;;;;5073600;28;20454;-74
2021/04/09 04:43:56;;;;;;;12.40;7.80;;;6.00;66.70;;;;;;5073633;28;20510;-74
2021/04/09 04:46:22;;;;;;;12.10;9.03;;;6.00;66.60;;;;;;5073450;28;20487;-74
2021/04/09 04:48:48;;;;;;;11.90;7.60;;;5.90;66.60;;;;;;5073597;28;20451;-74
2021/04/09 04:51:14;;;;;;;11.47;7.67;;;6.00;66.80;;;;;;5073225;28;20448;-74
2021/04/09 04:53:41;;;;;;;10.33;7.33;;;5.90;66.60;;;;;;5073519;28;20452;-74
2021/04/09 04:56:08;;;;;;;12.90;7.50;;;5.90;66.80;;;;;;5073416;28;20445;-74
2021/04/09 04:58:34;;;;;;;17.00;8.60;;;5.90;67.10;;;;;;5073454;28;20444;-74
2021/04/09 05:01:00;;;;;;;8.90;7.60;;;5.90;66.90;;;;;;5074000;28;20458;-74
2021/04/09 05:03:26;;;;;;;10.17;7.70;;;5.90;67.00;;;;;;5073408;28;20441;-74
2021/04/09 05:05:53;;;;;;;12.40;6.83;;;5.90;67.00;;;;;;5072941;28;20437;-74
2021/04/09 05:08:19;;;;;;;15.47;8.20;;;6.00;67.10;;;;;;5072967;28;20484;-74
2021/04/09 05:10:45;;;;;;;9.47;7.13;;;6.00;66.90;;;;;;5073010;28;20441;-74
2021/04/09 05:13:12;;;;;;;11.10;7.80;;;6.00;66.90;;;;;;5073302;28;20460;-74
2021/04/09 05:15:38;;;;;;;12.43;7.30;;;6.10;67.90;;;;;;5073463;28;20444;-74
2021/04/09 05:18:05;;;;;;;12.33;8.57;;;6.10;67.20;;;;;;5073246;28;20541;-74
2021/04/09 05:20:31;;;;;;;12.50;7.30;;;6.10;66.80;;;;;;5073890;28;20484;-74
2021/04/09 05:22:57;;;;;;;15.50;8.93;;;6.20;66.40;;;;;;5072905;28;20950;-74
2021/04/09 05:25:25;;;;;;;10.57;6.90;;;6.10;66.10;;;;;;5073194;28;20445;-74
2021/04/09 05:27:51;;;;;;;11.07;7.37;;;6.20;66.30;;;;;;5073070;28;20493;-74
2021/04/09 05:30:20;;;;;;;13.00;8.00;;;6.20;66.40;;;;;;5073210;28;20452;-74
2021/04/09 05:32:47;;;;;;;16.20;8.90;;;6.30;66.40;;;;;;5072016;28;20445;-74
2021/04/09 05:35:14;;;;;;;11.43;8.63;;;6.30;66.30;;;;;;5073065;28;20474;-74
2021/04/09 05:37:41;;;;;;;10.87;8.37;;;6.30;66.00;;;;;;5072881;28;20464;-74
2021/04/09 05:40:08;;;;;;;10.17;7.80;;;6.30;65.90;;;;;;5073034;28;20820;-74
2021/04/09 05:42:34;;;;;;;8.17;7.07;;;6.40;65.80;;;;;;5072726;28;20973;-74
2021/04/09 05:45:00;;;;;;;11.83;7.20;;;6.40;65.80;;;;;;5073519;28;20448;-74
2021/04/09 05:47:27;;;;;;;10.73;8.03;;;6.50;65.80;;;;;;5073437;28;21045;-74
2021/04/09 05:49:54;;;;;;;10.63;7.60;;;6.50;65.40;;;;;;5076846;28;20476;-74
2021/04/09 05:52:20;;;;;;;10.73;7.73;;;6.60;65.40;;;;;;5076756;28;20448;-74
2021/04/09 05:54:46;;;;;;;10.87;7.70;;;6.70;65.70;;;;;;5076527;28;20487;-74
2021/04/09 05:57:12;;;;;;;11.30;8.03;;;6.70;65.50;;;;;;5076557;28;20475;-74
2021/04/09 05:59:38;;;;;;;11.80;8.03;;;6.80;64.90;;;;;;5076305;28;21012;-74
2021/04/09 06:02:05;;;;;;;8.53;7.50;;;6.80;64.90;;;;;;5076646;28;20455;-74
2021/04/09 06:04:32;;;;;;;12.20;7.90;;;6.90;64.60;;;;;;5076499;28;20482;-74
2021/04/09 06:06:58;;;;;;;11.60;8.30;;;6.90;64.40;;;;;;5076177;28;20488;-75
2021/04/09 06:09:24;;;;;;;10.37;7.70;;;7.00;64.40;;;;;;5076178;28;20922;-74
2021/04/09 06:11:50;;;;;;;12.53;7.57;;;7.00;64.40;;;;;;5076392;28;20440;-74
2021/04/09 06:14:17;;;;;;;8.90;7.40;;;7.10;64.30;;;;;;5076375;28;20449;-74
2021/04/09 06:16:44;;;;;;;12.77;7.90;;;7.10;64.10;;;;;;5076220;28;20459;-74
2021/04/09 06:19:10;;;;;;;11.43;7.77;;;7.20;64.40;;;;;;5076267;28;20448;-74
2021/04/09 06:21:37;;;;;;;9.90;7.60;;;7.20;64.20;;;;;;5076224;28;20440;-74
2021/04/09 06:24:04;;;;;;;19.93;7.97;;;7.20;64.10;;;;;;5070279;22;20489;-74
2021/04/09 06:26:32;;;;;;;8.77;7.80;;;7.20;64.00;;;;;;5035833;28;20477;-74
2021/04/09 06:28:58;;;;;;;12.10;8.00;;;7.30;63.90;;;;;;5036220;28;20442;-74
2021/04/09 06:31:24;;;;;;;11.43;7.90;;;7.30;63.80;;;;;;5036221;28;20447;-74
2021/04/09 06:33:51;;;;;;;11.33;7.80;;;7.40;63.70;;;;;;5035778;28;20467;-74
2021/04/09 06:36:17;;;;;;;14.40;7.80;;;7.40;63.60;;;;;;5036077;28;20450;-74
2021/04/09 06:38:44;;;;;;;13.87;7.57;;;7.40;63.70;;;;;;5035698;28;20443;-74
2021/04/09 06:41:10;;;;;;;11.37;7.30;;;7.50;63.70;;;;;;5035553;28;20968;-74
2021/04/09 06:43:37;;;;;;;8.73;7.30;;;7.50;63.70;;;;;;5035762;28;20457;-74
2021/04/09 06:46:04;;;;;;;18.87;7.33;;;7.60;63.80;;;;;;5035817;28;20458;-74
2021/04/09 06:48:30;;;;;;;12.30;7.97;;;7.70;63.60;;;;;;5035822;28;20448;-74
2021/04/09 06:50:56;;;;;;;19.63;7.73;;;7.80;63.60;;;;;;5035810;28;20448;-74
2021/04/09 06:53:23;;;;;;;12.50;7.17;;;7.90;63.40;;;;;;5035353;28;20469;-74
2021/04/09 06:55:51;;;;;;;13.63;8.43;;;8.00;63.10;;;;;;5035690;28;20870;-74
2021/04/09 06:58:21;;;;;;;8.87;7.47;;;8.10;63.20;;;;;;5035412;28;20776;-74
2021/04/09 07:00:51;;;;;;;11.27;6.97;;;8.30;63.00;;;;;;5035474;28;20442;-74
2021/04/09 07:03:17;;;;;;;12.63;6.30;;;8.40;62.90;;;;;;5035233;28;20465;-74
2021/04/09 07:05:43;;;;;;;14.73;8.40;;;8.60;62.50;;;;;;5035240;28;20438;-74
2021/04/09 07:08:10;;;;;;;9.03;5.80;;;8.80;61.60;;;;;;5035653;28;20478;-74
2021/04/09 07:10:36;;;;;;;12.40;6.20;;;8.90;61.10;;;;;;5035211;28;20844;-75
2021/04/09 07:13:05;;;;;;;11.00;7.73;;;9.00;60.40;;;;;;5035046;28;20463;-74
2021/04/09 07:15:38;;;;;;;9.63;6.53;;;9.20;59.80;;;;;;5035267;28;20458;-75
2021/04/09 07:18:06;;;;;;;13.70;6.30;;;9.20;59.10;;;;;;5035103;28;20435;-75
2021/04/09 07:20:34;;;;;;;12.37;6.37;;;9.40;58.90;;;;;;5035367;28;20480;-75
2021/04/09 07:23:01;;;;;;;10.63;6.17;;;9.40;58.30;;;;;;5035026;28;20514;-75
2021/04/09 07:25:30;;;;;;;7.60;5.83;;;9.50;58.00;;;;;;5035226;28;20452;-74
2021/04/09 07:28:13;;;;;;;18.63;6.90;;;9.50;58.20;;;;;;5035089;28;20484;-74
2021/04/09 07:31:41;;;;;;;12.07;6.80;;;9.60;58.20;;;;;;5033727;28;20549;-74
2021/04/09 07:34:18;;;;;;;12.60;6.60;;;9.70;58.20;;;;;;5034641;28;20454;-73
2021/04/09 07:37:43;;;;;;;9.33;6.70;;;9.90;58.60;;;;;;5035190;28;20424;-73
2021/04/09 07:40:15;;;;;;;7.07;5.80;;;10.10;58.00;;;;;;5034852;28;21007;-73
2021/04/09 07:42:42;;;;;;;12.97;6.83;;;10.30;57.10;;;;;;5034795;28;20470;-74
2021/04/09 07:45:12;;;;;;;13.40;7.23;;;10.30;56.50;;;;;;5034793;28;20496;-74
2021/04/09 07:47:39;;;;;;;12.50;6.50;;;10.40;56.10;;;;;;5034691;28;20481;-74
2021/04/09 07:50:11;;;;;;;10.40;7.50;;;10.40;55.60;;;;;;5034340;28;21086;-74
2021/04/09 07:52:46;;;;;;;10.50;6.03;;;10.40;56.70;;;;;;5034463;28;20470;-74
2021/04/09 07:55:31;;;;;;;9.80;6.40;;;10.40;56.60;;;;;;5034534;28;20438;-74
2021/04/09 07:58:15;;;;;;;11.90;6.73;;;10.50;56.00;;;;;;5034576;28;20426;-74
2021/04/09 08:00:43;;;;;;;16.27;6.47;;;10.60;55.50;;;;;;5035110;28;20908;-76
2021/04/09 08:03:10;;;;;;;10.37;7.50;;;10.80;55.90;;;;;;5042810;28;20463;-72
2021/04/09 08:05:36;;;;;;;10.33;6.57;;;10.90;54.30;;;;;;5038995;28;20445;-73
2021/04/09 08:08:02;;;;;;;12.53;7.20;;;11.10;55.20;;;;;;5037050;28;20481;-73
2021/04/09 08:10:30;;;;;;;8.70;6.77;;;11.20;53.80;;;;;;5039914;28;20443;-73
2021/04/09 08:12:58;;;;;;;9.50;6.30;;;11.30;54.10;;;;;;5043853;28;20467;-70
2021/04/09 08:15:26;;;;;;;12.87;7.23;;;11.50;53.70;;;;;;5041508;28;20432;-70
2021/04/09 08:18:01;;;;;;;9.23;7.50;;;11.60;53.30;;;;;;5036898;28;20433;-70
2021/04/09 08:20:30;;;;;;;10.10;7.30;;;11.60;52.30;;;;;;5036899;28;20427;-70
2021/04/09 08:23:00;;;;;;;11.90;7.23;;;11.70;53.50;;;;;;5038809;28;20481;-71
2021/04/09 08:25:28;;;;;;;11.70;7.23;;;11.90;52.90;;;;;;5036955;28;20457;-71
2021/04/09 08:27:55;;;;;;;10.30;7.27;;;11.90;53.00;;;;;;5034176;28;20486;-71
2021/04/09 08:30:23;;;;;;;10.23;7.13;;;12.10;52.40;;;;;;5033699;28;21015;-71
2021/04/09 08:32:53;;;;;;;11.53;7.33;;;12.20;51.10;;;;;;5033825;28;20486;-69
2021/04/09 08:35:21;;;;;;;15.00;7.80;;;12.20;50.80;;;;;;5035156;28;20467;-70
2021/04/09 08:37:48;;;;;;;10.30;7.90;;;12.30;51.00;;;;;;5035175;28;20446;-70
2021/04/09 08:40:15;;;;;;;11.13;7.63;;;12.20;51.10;;;;;;5038153;28;20446;-71
2021/04/09 08:42:42;;;;;;;12.33;8.10;;;12.40;51.20;;;;;;5040370;28;20967;-69
2021/04/09 08:45:09;;;;;;;12.70;7.50;;;12.60;52.00;;;;;;5049356;28;20474;-71
2021/04/09 08:47:36;;;;;;;12.37;7.40;;;12.80;51.70;;;;;;5047773;28;20490;-70
2021/04/09 08:50:08;;;;;;;11.40;8.60;;;13.00;50.70;;;;;;5041547;28;20434;-71
2021/04/09 08:52:39;;;;;;;13.03;8.17;;;13.00;49.30;;;;;;5040086;28;20434;-72
2021/04/09 08:55:06;;;;;;;8.93;7.20;;;12.90;48.80;;;;;;5036404;28;20498;-70
2021/04/09 08:57:34;;;;;;;14.17;8.90;;;12.80;48.80;;;;;;5034862;28;20438;-71
2021/04/09 09:00:14;;;;;;;10.30;8.60;;;12.60;48.80;;;;;;5034109;28;20462;-70
2021/04/09 09:02:42;;;;;;;11.17;7.50;;;12.50;48.90;;;;;;5034328;28;20561;-71
2021/04/09 09:05:11;;;;;;;12.97;7.47;;;12.40;50.30;;;;;;5033779;28;20465;-72
2021/04/09 09:07:57;;;;;;;13.93;7.90;;;12.50;48.60;;;;;;5034933;28;20489;-72
2021/04/09 09:10:55;;;;;;;10.60;7.70;;;12.30;50.00;;;;;;5033356;28;20577;-72
2021/04/09 09:13:31;;;;;;;11.90;6.77;;;12.20;49.40;;;;;;5033920;28;20481;-74
2021/04/09 09:16:14;;;;;;;11.03;8.03;;;12.20;48.50;;;;;;5034850;28;20453;-74
2021/04/09 09:18:48;;;;;;;12.43;7.37;;;12.10;48.40;;;;;;5039324;28;20513;-73
2021/04/09 09:21:37;;;;;;;9.77;7.40;;;12.00;49.20;;;;;;5033685;28;20426;-72
2021/04/09 09:24:16;;;;;;;14.47;8.77;;;12.10;49.90;;;;;;5037194;28;20532;-73
2021/04/09 09:26:44;;;;;;;12.57;8.20;;;12.00;48.80;;;;;;5037211;28;20525;-73
2021/04/09 09:29:13;;;;;;;9.43;7.73;;;12.10;48.80;;;;;;5038058;28;20803;-74
2021/04/09 09:31:41;;;;;;;18.53;7.63;;;12.10;49.70;;;;;;5037907;28;20437;-75
2021/04/09 09:34:46;;;;;;;15.60;8.50;;;12.10;50.10;;;;;;5037746;28;20557;-76
2021/04/09 09:37:15;;;;;;;14.20;8.07;;;12.10;49.20;;;;;;5037233;28;20525;-76
2021/04/09 09:39:46;;;;;;;10.40;8.57;;;12.20;49.80;;;;;;5037069;28;20469;-76
2021/04/09 09:42:14;;;;;;;13.60;8.57;;;12.40;49.70;;;;;;5037378;28;20525;-75
2021/04/09 09:44:45;;;;;;;11.60;7.70;;;12.70;49.30;;;;;;5037351;28;20500;-73
2021/04/09 09:47:23;;;;;;;13.10;8.10;;;13.10;50.60;;;;;;5036939;28;20482;-72
2021/04/09 09:50:19;;;;;;;8.73;6.90;;;13.50;48.60;;;;;;5036969;28;20453;-72
2021/04/09 09:52:47;;;;;;;12.77;7.40;;;13.90;46.60;;;;;;5037032;28;20471;-71
2021/04/09 09:55:18;;;;;;;8.40;7.50;;;14.10;45.60;;;;;;5036783;28;20943;-75
2021/04/09 09:57:50;;;;;;;12.50;7.30;;;14.10;46.30;;;;;;5036625;28;20466;-74
2021/04/09 10:00:28;;;;;;;10.37;7.90;;;14.10;45.90;;;;;;5036869;28;20438;-71
2021/04/09 10:03:12;;;;;;;10.00;7.83;;;14.00;46.60;;;;;;5036612;28;20532;-70
2021/04/09 10:05:39;;;;;;;15.03;8.33;;;13.70;46.00;;;;;;5036626;28;20450;-71
2021/04/09 10:08:06;;;;;;;12.93;8.90;;;13.40;47.20;;;;;;5036370;28;20485;-71
2021/04/09 10:10:38;;;;;;;21.13;8.57;;;13.30;47.40;;;;;;5036187;28;21005;-72
2021/04/09 10:13:17;;;;;;;16.17;8.37;;;13.50;48.40;;;;;;5036663;28;20846;-71
2021/04/09 10:15:44;;;;;;;14.47;8.80;;;13.80;48.00;;;;;;5036517;28;20543;-71
2021/04/09 10:18:10;;;;;;;14.87;8.03;;;14.10;48.00;;;;;;5036457;28;20794;-71
2021/04/09 10:20:37;;;;;;;10.03;7.33;;;14.30;46.60;;;;;;5036659;28;20449;-71
2021/04/09 10:23:04;;;;;;;9.57;7.30;;;14.60;46.50;;;;;;5036086;28;20900;-70
2021/04/09 10:25:31;;;;;;;16.97;7.60;;;14.80;46.30;;;;;;5036318;28;20447;-70
2021/04/09 10:27:59;;;;;;;9.63;7.63;;;15.00;45.80;;;;;;5036170;28;20478;-71
2021/04/09 10:30:26;;;;;;;10.17;6.60;;;15.40;46.10;;;;;;5036441;28;20442;-71
2021/04/09 10:32:52;;;;;;;22.93;7.97;;;15.90;44.20;;;;;;5035448;28;20462;-70
2021/04/09 10:35:22;;;;;;;10.00;6.60;;;16.50;43.10;;;;;;5036141;28;20431;-70
2021/04/09 10:37:48;;;;;;;11.50;7.20;;;16.70;42.70;;;;;;5035727;28;20474;-70
2021/04/09 10:40:14;;;;;;;9.70;7.17;;;16.40;41.50;;;;;;5036329;28;20439;-70
2021/04/09 10:42:41;;;;;;;7.10;6.10;;;16.20;43.70;;;;;;5035993;28;20524;-69
2021/04/09 10:45:19;;;;;;;11.83;6.57;;;16.00;41.90;;;;;;5036462;28;20457;-70
2021/04/09 10:47:46;;;;;;;7.27;6.03;;;15.40;43.70;;;;;;5035494;28;20986;-70
2021/04/09 10:50:13;;;;;;;8.10;6.30;;;15.00;43.70;;;;;;5035845;28;20450;-70
2021/04/09 10:52:39;;;;;;;8.77;5.73;;;14.80;45.40;;;;;;5035511;28;20856;-70
2021/04/09 10:55:07;;;;;;;5.90;5.30;;;14.60;44.60;;;;;;5035499;28;20451;-69
2021/04/09 10:57:35;;;;;;;7.00;5.90;;;14.50;46.00;;;;;;5035349;28;20944;-69
2021/04/09 11:00:03;;;;;;;7.53;5.70;;;14.40;46.30;;;;;;5035710;28;20434;-69
2021/04/09 11:02:30;;;;;;;10.50;6.03;;;14.40;45.30;;;;;;5035605;28;20454;-69
2021/04/09 11:04:58;;;;;;;8.47;5.90;;;14.40;45.40;;;;;;5035560;28;20431;-69
2021/04/09 11:07:41;;;;;;;10.23;6.23;;;14.40;46.50;;;;;;5035391;28;20478;-69
2021/04/09 11:10:08;;;;;;;12.47;6.27;;;14.70;47.20;;;;;;5035168;28;20430;-69
2021/04/09 11:12:35;;;;;;;7.73;5.73;;;15.10;46.30;;;;;;5035471;28;20438;-69
2021/04/09 11:15:06;;;;;;;7.03;5.40;;;15.40;45.50;;;;;;5035030;28;20913;-69
2021/04/09 11:17:35;;;;;;;7.53;5.40;;;15.50;45.40;;;;;;5035188;28;20443;-70
2021/04/09 11:20:18;;;;;;;12.20;6.23;;;15.50;44.10;;;;;;5034983;28;20430;-69
2021/04/09 11:22:45;;;;;;;11.10;6.60;;;15.30;44.10;;;;;;5034767;28;20477;-69
2021/04/09 11:25:12;;;;;;;8.70;6.00;;;15.10;45.20;;;;;;5035059;28;20454;-69
2021/04/09 11:27:41;;;;;;;6.57;5.87;;;15.10;45.50;;;;;;5035019;28;20479;-72
2021/04/09 11:30:15;;;;;;;8.70;6.83;;;15.60;44.70;;;;;;5035163;28;20438;-71
2021/04/09 11:32:44;;;;;;;10.27;6.63;;;16.00;43.70;;;;;;5034832;28;20466;-71
2021/04/09 11:35:13;;;;;;;9.13;6.33;;;16.30;42.90;;;;;;5034933;28;20458;-72
2021/04/09 11:37:44;;;;;;;6.13;5.40;;;16.40;43.90;;;;;;5034811;28;20442;-72
2021/04/09 11:40:12;;;;;;;10.23;7.10;;;16.30;44.10;;;;;;5034793;28;20812;-70
2021/04/09 11:42:38;;;;;;;8.20;5.40;;;16.40;43.10;;;;;;5034434;28;21007;-69
2021/04/09 11:45:06;;;;;;;6.07;5.47;;;16.30;42.90;;;;;;5033729;28;20446;-70
2021/04/09 11:47:35;;;;;;;6.60;5.57;;;16.40;42.20;;;;;;5034958;28;20532;-70
2021/04/09 11:50:06;;;;;;;10.17;5.73;;;16.80;42.00;;;;;;5034554;28;20451;-71
2021/04/09 11:52:49;;;;;;;6.30;5.27;;;16.90;42.40;;;;;;5034226;28;20806;-72
2021/04/09 11:55:15;;;;;;;7.83;5.67;;;17.00;42.60;;;;;;5035038;28;20494;-72
2021/04/09 11:57:42;;;;;;;6.60;6.00;;;16.90;41.10;;;;;;5034416;28;20445;-72
2021/04/09 12:00:22;;;;;;;9.27;6.30;;;16.80;40.60;;;;;;5034226;28;20935;-72
2021/04/09 12:02:50;;;;;;;7.83;5.83;;;16.90;42.00;;;;;;5034424;28;20474;-71
2021/04/09 12:05:22;;;;;;;11.67;5.60;;;17.30;40.50;;;;;;5034380;28;21089;-72
2021/04/09 12:07:48;;;;;;;9.23;5.23;;;17.90;40.50;;;;;;5036089;28;20470;-72
2021/04/09 12:10:16;;;;;;;11.80;6.17;;;18.20;39.80;;;;;;5034996;28;20960;-71
2021/04/09 12:12:43;;;;;;;7.17;6.43;;;18.20;39.40;;;;;;5036733;28;20477;-71
2021/04/09 12:15:11;;;;;;;8.57;5.30;;;18.10;38.60;;;;;;5035027;28;20449;-72
2021/04/09 12:17:38;;;;;;;7.00;5.10;;;18.20;39.30;;;;;;5034979;28;20805;-73
2021/04/09 12:20:08;;;;;;;7.57;4.83;;;18.50;38.50;;;;;;5035546;28;20450;-72
2021/04/09 12:22:35;;;;;;;7.07;4.53;;;18.50;38.00;;;;;;5034289;28;20490;-71
2021/04/09 12:25:02;;;;;;;7.30;4.80;;;18.60;37.00;;;;;;5034824;28;20798;-72
2021/04/09 12:27:28;;;;;;;6.75;4.47;;;18.60;36.50;;;;;;5033824;28;20451;-71
2021/04/09 12:29:54;;;;;;;6.17;5.57;;;18.50;37.50;;;;;;5034037;28;20207;-71
2021/04/09 12:32:21;;;;;;;4.90;3.97;;;18.50;37.70;;;;;;5033841;28;20447;-71
2021/04/09 12:34:47;;;;;;;6.00;5.40;;;18.00;36.40;;;;;;5033856;28;20451;-70
2021/04/09 12:37:13;;;;;;;4.63;4.23;;;17.60;38.60;;;;;;5033849;28;20465;-71
2021/04/09 12:39:40;;;;;;;6.37;5.10;;;17.70;38.60;;;;;;5033798;28;20443;-70
2021/04/09 12:42:08;;;;;;;5.73;5.13;;;17.40;38.50;;;;;;5034470;28;20447;-70
2021/04/09 12:44:35;;;;;;;6.73;5.70;;;17.00;40.10;;;;;;5033676;28;20497;-70
2021/04/09 12:47:01;;;;;;;10.80;5.17;;;16.80;40.80;;;;;;5033390;28;20477;-70
2021/04/09 12:49:27;;;;;;;5.67;5.10;;;16.60;40.40;;;;;;5033930;28;20469;-70
2021/04/09 12:51:53;;;;;;;9.30;5.27;;;16.20;41.40;;;;;;5033675;28;20454;-70
2021/04/09 12:54:20;;;;;;;9.70;5.73;;;15.70;42.30;;;;;;5033685;28;20465;-70